createdAt,value
2022-09-23T00:01:00.973Z,4.65
2022-09-23T00:03:02.620Z,4.13
2022-09-23T00:05:04.467Z,4.47
2022-09-23T00:07:05.869Z,4.25
2022-09-23T00:09:07.605Z,3.90
2022-09-23T00:11:10.499Z,4.07
2022-09-23T00:13:12.498Z,4.15
2022-09-23T00:15:14.222Z,4.13
2022-09-23T00:17:15.889Z,4.20
2022-09-23T00:19:17.381Z,4.53
2022-09-23T00:21:20.150Z,3.95
2022-09-23T00:23:21.584Z,4.40
2022-09-23T00:25:22.997Z,4.15
2022-09-23T00:27:24.789Z,4.43
2022-09-23T00:29:26.638Z,4.35
2022-09-23T00:31:28.170Z,4.03
2022-09-23T00:33:29.922Z,3.63
2022-09-23T00:35:31.269Z,5.10
2022-09-23T00:37:32.628Z,4.07
2022-09-23T00:39:34.125Z,4.10
2022-09-23T00:41:36.342Z,3.20
2022-09-23T00:43:52.847Z,3.97
2022-09-23T00:45:54.912Z,3.47
2022-09-23T00:47:58.098Z,3.28
2022-09-23T00:50:14.488Z,3.93
2022-09-23T00:52:18.105Z,3.35
2022-09-23T00:54:20.877Z,3.65
2022-09-23T00:56:23.260Z,3.47
2022-09-23T00:58:28.733Z,3.65
2022-09-23T01:00:30.358Z,3.13
2022-09-23T01:02:32.744Z,4.75
2022-09-23T01:04:34.345Z,3.63
2022-09-23T01:06:36.108Z,3.15
2022-09-23T01:08:37.711Z,3.17
2022-09-23T01:10:51.315Z,2.92
2022-09-23T01:12:55.678Z,2.92
2022-09-23T01:14:57.328Z,3.40
2022-09-23T01:17:02.996Z,3.08
2022-09-23T01:19:10.540Z,3.83
2022-09-23T01:21:15.218Z,4.35
2022-09-23T01:23:16.590Z,3.85
2022-09-23T01:25:36.421Z,2.80
2022-09-23T01:27:41.291Z,2.85
2022-09-23T01:30:02.727Z,2.65
2022-09-23T01:32:10.029Z,3.13
2022-09-23T01:34:17.313Z,3.00
2022-09-23T01:36:21.992Z,3.38
2022-09-23T01:38:34.675Z,3.17
2022-09-23T01:41:13.439Z,2.88
2022-09-23T01:43:25.432Z,3.47
2022-09-23T01:45:33.515Z,3.63
2022-09-23T01:47:41.550Z,3.88
2022-09-23T01:50:04.659Z,3.65
2022-09-23T01:52:13.574Z,3.65
2022-09-23T01:54:25.987Z,2.38
2022-09-23T01:56:38.910Z,3.05
2022-09-23T01:58:50.621Z,2.90
2022-09-23T02:01:08.356Z,3.83
2022-09-23T02:03:19.495Z,4.10
2022-09-23T02:05:29.293Z,3.55
2022-09-23T02:07:43.582Z,4.43
2022-09-23T02:09:49.004Z,4.00
2022-09-23T02:12:00.623Z,4.22
2022-09-23T02:14:05.009Z,4.15
2022-09-23T02:16:10.950Z,3.38
2022-09-23T02:18:17.991Z,3.60
2022-09-23T02:20:24.853Z,4.10
2022-09-23T02:22:28.250Z,3.33
2022-09-23T02:24:34.646Z,3.65
2022-09-23T02:26:48.237Z,3.85
2022-09-23T02:29:07.907Z,3.42
2022-09-23T02:31:28.524Z,3.38
2022-09-23T02:33:34.727Z,3.03
2022-09-23T02:35:37.082Z,2.88
2022-09-23T02:37:57.343Z,3.47
2022-09-23T02:40:02.074Z,3.45
2022-09-23T02:42:12.723Z,2.78
2022-09-23T02:44:16.681Z,2.58
2022-09-23T02:48:22.489Z,2.00
2022-09-23T02:50:23.923Z,3.38
2022-09-23T02:52:25.694Z,2.30
2022-09-23T02:54:28.561Z,1.80
2022-09-23T02:56:29.957Z,2.08
2022-09-23T02:58:31.747Z,1.88
2022-09-23T03:00:52.366Z,2.00
2022-09-23T03:03:11.230Z,1.85
2022-09-23T03:05:24.746Z,1.63
2022-09-23T03:07:46.563Z,1.67
2022-09-23T03:10:07.312Z,1.50
2022-09-23T03:12:35.902Z,1.70
2022-09-23T03:14:44.337Z,1.55
2022-09-23T03:17:01.009Z,1.90
2022-09-23T03:19:02.699Z,1.80
2022-09-23T03:21:07.391Z,1.42
2022-09-23T03:23:10.323Z,1.60
2022-09-23T03:25:14.593Z,1.35
2022-09-23T03:27:18.714Z,1.55
2022-09-23T03:29:22.062Z,2.00
2022-09-23T03:31:23.627Z,1.88
2022-09-23T03:33:28.812Z,2.33
2022-09-23T03:35:32.598Z,1.40
2022-09-23T03:37:34.014Z,1.70
2022-09-23T03:39:40.287Z,1.75
2022-09-23T03:41:51.510Z,1.90
2022-09-23T03:43:53.540Z,1.88
2022-09-23T03:45:58.044Z,1.58
2022-09-23T03:48:00.114Z,1.63
2022-09-23T03:50:01.642Z,1.83
2022-09-23T03:52:03.681Z,1.75
2022-09-23T03:54:05.264Z,1.98
2022-09-23T03:56:06.775Z,1.80
2022-09-23T03:58:08.736Z,1.92
2022-09-23T04:00:10.666Z,1.70
2022-09-23T04:02:12.428Z,1.65
2022-09-23T04:04:13.865Z,1.90
2022-09-23T04:06:15.311Z,1.75
2022-09-23T04:08:16.721Z,1.75
2022-09-23T04:10:18.302Z,1.90
2022-09-23T04:12:19.776Z,1.75
2022-09-23T04:14:21.766Z,1.40
2022-09-23T04:16:23.236Z,1.58
2022-09-23T04:18:24.733Z,1.65
2022-09-23T04:20:28.632Z,1.77
2022-09-23T04:22:30.098Z,1.52
2022-09-23T04:24:31.543Z,2.03
2022-09-23T04:26:33.958Z,2.08
2022-09-23T04:28:35.411Z,1.60
2022-09-23T04:30:41.425Z,1.52
2022-09-23T04:32:42.854Z,1.67
2022-09-23T04:34:44.421Z,1.77
2022-09-23T04:36:46.646Z,1.40
2022-09-23T04:38:48.718Z,1.65
2022-09-23T04:40:50.499Z,1.80
2022-09-23T04:42:52.330Z,2.00
2022-09-23T04:44:53.864Z,2.17
2022-09-23T04:46:57.276Z,1.83
2022-09-23T04:49:07.558Z,1.70
2022-09-23T04:51:25.668Z,2.10
2022-09-23T04:53:36.650Z,1.95
2022-09-23T04:55:47.702Z,1.80
2022-09-23T04:57:55.122Z,1.92
2022-09-23T05:00:06.494Z,2.05
2022-09-23T05:02:15.088Z,1.67
2022-09-23T05:04:24.442Z,1.83
2022-09-23T05:06:35.807Z,1.90
2022-09-23T05:08:46.382Z,1.92
2022-09-23T05:10:53.911Z,1.90
2022-09-23T05:13:01.875Z,1.88
2022-09-23T05:15:03.583Z,1.65
2022-09-23T05:17:05.886Z,1.88
2022-09-23T05:19:07.524Z,2.20
2022-09-23T05:21:16.014Z,2.10
2022-09-23T05:23:17.571Z,2.08
2022-09-23T05:25:19.005Z,2.05
2022-09-23T05:27:20.743Z,2.22
2022-09-23T05:29:22.516Z,1.75
2022-09-23T05:31:25.463Z,1.58
2022-09-23T05:33:27.403Z,1.77
2022-09-23T05:35:28.889Z,2.38
2022-09-23T05:37:33.104Z,2.33
2022-09-23T05:39:34.551Z,2.15
2022-09-23T05:41:36.583Z,2.30
2022-09-23T05:43:38.079Z,2.28
2022-09-23T05:45:39.756Z,2.67
2022-09-23T05:47:41.345Z,2.40
2022-09-23T05:49:59.251Z,2.15
2022-09-23T05:52:02.507Z,2.15
2022-09-23T05:54:04.608Z,2.95
2022-09-23T05:56:06.919Z,2.58
2022-09-23T05:58:08.474Z,2.67
2022-09-23T06:00:10.277Z,2.60
2022-09-23T06:02:11.827Z,2.38
2022-09-23T06:04:14.248Z,3.08
2022-09-23T06:06:18.009Z,3.00
2022-09-23T06:08:19.702Z,3.70
2022-09-23T06:10:21.499Z,2.70
2022-09-23T06:12:23.375Z,3.70
2022-09-23T06:14:24.811Z,2.63
2022-09-23T06:16:27.018Z,2.45
2022-09-23T06:18:28.964Z,2.60
2022-09-23T06:20:31.088Z,3.17
2022-09-23T06:22:37.414Z,3.40
2022-09-23T06:24:40.716Z,3.03
2022-09-23T06:26:42.782Z,4.10
2022-09-23T06:28:45.056Z,4.15
2022-09-23T06:30:46.552Z,4.35
2022-09-23T06:32:49.897Z,3.88
2022-09-23T06:34:52.238Z,3.88
2022-09-23T06:36:55.630Z,3.88
2022-09-23T06:38:57.292Z,3.60
2022-09-23T06:40:59.154Z,3.35
2022-09-23T06:43:01.863Z,4.10
2022-09-23T06:45:03.419Z,4.35
2022-09-23T06:47:04.890Z,4.38
2022-09-23T06:49:06.398Z,4.05
2022-09-23T06:51:07.895Z,3.30
2022-09-23T06:53:09.420Z,3.92
2022-09-23T06:55:11.341Z,4.07
2022-09-23T06:57:13.225Z,4.32
2022-09-23T06:59:17.013Z,5.15
2022-09-23T07:01:19.839Z,3.67
2022-09-23T07:03:22.258Z,4.70
2022-09-23T07:05:23.863Z,4.50
2022-09-23T07:07:26.642Z,4.63
2022-09-23T07:09:28.218Z,4.00
2022-09-23T07:11:29.854Z,4.88
2022-09-23T07:13:33.448Z,5.20
2022-09-23T07:15:35.250Z,4.70
2022-09-23T07:17:37.071Z,5.18
2022-09-23T07:19:38.678Z,4.05
2022-09-23T07:21:40.184Z,3.67
2022-09-23T07:23:50.140Z,4.43
2022-09-23T07:25:52.859Z,3.83
2022-09-23T07:27:56.284Z,3.67
2022-09-23T07:29:57.873Z,4.15
2022-09-23T07:32:10.671Z,3.17
2022-09-23T07:34:14.217Z,3.25
2022-09-23T07:36:17.537Z,3.50
2022-09-23T07:38:19.100Z,4.20
2022-09-23T07:40:20.923Z,4.82
2022-09-23T07:42:22.390Z,3.83
2022-09-23T07:44:24.051Z,4.40
2022-09-23T07:46:30.013Z,4.15
2022-09-23T07:48:34.428Z,3.50
2022-09-23T07:50:36.223Z,3.90
2022-09-23T07:52:41.626Z,4.13
2022-09-23T07:54:55.688Z,3.88
2022-09-23T07:57:04.314Z,3.83
2022-09-23T07:59:15.385Z,4.05
2022-09-23T08:01:28.717Z,3.55
2022-09-23T08:03:44.187Z,3.95
2022-09-23T08:05:56.842Z,3.92
2022-09-23T08:08:06.609Z,4.68
2022-09-23T08:10:12.879Z,5.47
2022-09-23T08:12:24.295Z,6.15
2022-09-23T08:14:32.297Z,6.63
2022-09-23T08:16:44.477Z,6.78
2022-09-23T08:18:52.712Z,7.85
2022-09-23T08:21:01.368Z,8.95
2022-09-23T08:23:11.814Z,10.15
2022-09-23T08:25:17.806Z,9.90
2022-09-23T08:27:21.485Z,10.00
2022-09-23T08:29:23.955Z,11.35
2022-09-23T08:31:27.560Z,12.80
2022-09-23T08:33:29.514Z,13.95
2022-09-23T08:35:31.095Z,14.68
2022-09-23T08:37:32.529Z,15.57
2022-09-23T08:39:34.797Z,15.63
2022-09-23T08:41:48.829Z,17.50
2022-09-23T08:43:53.498Z,16.48
2022-09-23T08:45:56.147Z,17.80
2022-09-23T08:48:09.596Z,17.50
2022-09-23T08:50:24.915Z,18.48
2022-09-23T08:52:31.489Z,21.55
2022-09-23T08:54:34.358Z,20.55
2022-09-23T08:56:38.915Z,22.15
2022-09-23T08:58:43.937Z,21.30
2022-09-23T09:00:49.681Z,22.33
2022-09-23T09:02:51.254Z,21.92
2022-09-23T09:04:54.138Z,25.27
2022-09-23T09:07:31.767Z,25.95
2022-09-23T09:09:27.664Z,22.92
2022-09-23T09:11:33.309Z,24.23
2022-09-23T09:13:38.146Z,25.08
2022-09-23T09:15:46.226Z,22.75
2022-09-23T09:17:59.180Z,23.33
2022-09-23T09:20:08.735Z,22.13
2022-09-23T09:22:13.822Z,20.67
2022-09-23T09:24:21.738Z,18.70
2022-09-23T09:26:35.173Z,19.00
2022-09-23T09:28:42.564Z,20.83
2022-09-23T09:30:48.332Z,20.67
2022-09-23T09:32:52.949Z,20.35
2022-09-23T09:34:57.397Z,18.30
2022-09-23T09:37:07.560Z,18.88
2022-09-23T09:39:12.250Z,17.67
2022-09-23T09:41:15.761Z,14.70
2022-09-23T09:43:22.748Z,15.93
2022-09-23T09:45:39.409Z,14.45
2022-09-23T09:47:48.906Z,14.65
2022-09-23T09:50:09.122Z,16.73
2022-09-23T09:52:12.441Z,15.77
2022-09-23T09:54:18.366Z,13.18
2022-09-23T09:56:22.370Z,14.00
2022-09-23T10:00:27.868Z,10.00
2022-09-23T10:02:35.786Z,9.48
2022-09-23T10:04:37.497Z,8.25
2022-09-23T10:06:39.031Z,8.35
2022-09-23T10:08:40.414Z,7.28
2022-09-23T10:10:51.778Z,7.20
2022-09-23T10:12:53.268Z,7.85
2022-09-23T10:14:58.096Z,6.78
2022-09-23T10:17:05.206Z,7.25
2022-09-23T10:19:25.846Z,7.57
2022-09-23T10:21:34.422Z,7.78
2022-09-23T10:23:40.086Z,8.35
2022-09-23T10:25:42.214Z,7.22
2022-09-23T10:27:45.552Z,6.15
2022-09-23T10:29:46.917Z,6.28
2022-09-23T10:31:48.443Z,6.30
2022-09-23T10:33:51.222Z,5.68
2022-09-23T10:35:57.224Z,5.22
2022-09-23T10:38:01.859Z,5.45
2022-09-23T10:40:32.426Z,5.53
2022-09-23T10:43:07.668Z,4.90
2022-09-23T10:45:42.705Z,5.32
2022-09-23T10:48:01.775Z,4.40
2022-09-23T10:50:11.257Z,5.70
2022-09-23T10:52:14.122Z,5.93
2022-09-23T10:54:18.273Z,6.57
2022-09-23T10:56:32.760Z,5.40
2022-09-23T10:58:44.380Z,5.72
2022-09-23T11:00:51.946Z,4.93
2022-09-23T11:03:12.936Z,4.95
2022-09-23T11:05:25.103Z,4.68
2022-09-23T11:07:40.970Z,4.47
2022-09-23T11:09:50.874Z,6.03
2022-09-23T11:12:02.820Z,5.63
2022-09-23T11:14:08.875Z,5.45
2022-09-23T11:16:33.316Z,5.60
2022-09-23T11:18:51.174Z,5.75
2022-09-23T11:21:08.298Z,4.80
2022-09-23T11:23:12.093Z,3.90
2022-09-23T11:25:46.242Z,3.40
2022-09-23T11:28:07.910Z,3.20
2022-09-23T11:30:14.106Z,3.22
2022-09-23T11:32:15.726Z,4.93
2022-09-23T11:34:35.737Z,4.22
2022-09-23T11:36:39.104Z,4.30
2022-09-23T11:38:42.814Z,4.82
2022-09-23T11:40:46.544Z,3.50
2022-09-23T11:42:58.581Z,3.65
2022-09-23T11:45:21.510Z,3.45
2022-09-23T11:47:31.403Z,3.63
2022-09-23T11:49:36.738Z,3.20
2022-09-23T11:51:41.781Z,3.85
2022-09-23T11:53:46.982Z,3.30
2022-09-23T11:56:00.770Z,3.38
2022-09-23T11:58:22.490Z,3.50
2022-09-23T12:00:32.539Z,3.53
2022-09-23T12:03:00.082Z,3.65
2022-09-23T12:05:16.129Z,3.88
2022-09-23T12:07:45.870Z,3.20
2022-09-23T12:09:58.727Z,4.13
2022-09-23T12:12:03.058Z,3.38
2022-09-23T12:14:04.683Z,3.78
2022-09-23T12:16:24.985Z,3.17
2022-09-23T12:18:29.297Z,2.85
2022-09-23T12:20:30.959Z,2.50
2022-09-23T12:22:45.826Z,3.13
2022-09-23T12:24:47.381Z,1.92
2022-09-23T12:26:53.279Z,2.70
2022-09-23T12:29:00.080Z,3.30
2022-09-23T12:31:03.229Z,3.03
2022-09-23T12:33:09.057Z,3.10
2022-09-23T12:35:22.194Z,3.38
2022-09-23T12:37:38.011Z,2.95
2022-09-23T12:39:39.666Z,3.00
2022-09-23T12:41:42.815Z,3.67
2022-09-23T12:43:51.531Z,2.60
2022-09-23T12:45:52.926Z,2.08
2022-09-23T12:47:54.443Z,1.95
2022-09-23T12:49:59.134Z,2.00
2022-09-23T12:52:12.627Z,2.20
2022-09-23T12:54:15.376Z,1.80
2022-09-23T12:56:18.615Z,2.63
2022-09-23T12:58:38.122Z,2.55
2022-09-23T13:00:39.795Z,2.72
2022-09-23T13:02:47.086Z,2.50
2022-09-23T13:05:30.616Z,2.10
2022-09-23T13:07:34.101Z,2.35
2022-09-23T13:09:40.542Z,1.80
2022-09-23T13:11:43.820Z,2.80
2022-09-23T13:13:46.012Z,2.17
2022-09-23T13:15:47.750Z,1.92
2022-09-23T13:17:49.480Z,2.50
2022-09-23T13:19:58.828Z,2.45
2022-09-23T13:22:02.774Z,2.13
2022-09-23T13:24:23.322Z,2.17
2022-09-23T13:26:24.864Z,1.80
2022-09-23T13:28:36.792Z,2.40
2022-09-23T13:30:47.560Z,1.60
2022-09-23T13:33:01.351Z,1.45
2022-09-23T13:35:05.472Z,1.42
2022-09-23T13:37:22.700Z,1.40
2022-09-23T13:39:25.435Z,1.50
2022-09-23T13:41:28.683Z,1.98
2022-09-23T13:43:42.642Z,1.38
2022-09-23T13:45:44.245Z,1.70
2022-09-23T13:47:46.904Z,1.67
2022-09-23T13:49:48.412Z,1.58
2022-09-23T13:51:50.707Z,1.65
2022-09-23T13:53:56.022Z,1.67
2022-09-23T13:56:07.044Z,1.85
2022-09-23T13:58:35.000Z,1.60
2022-09-23T14:00:37.784Z,1.77
2022-09-23T14:02:42.993Z,1.40
2022-09-23T14:04:45.330Z,2.35
2022-09-23T14:06:56.258Z,1.90
2022-09-23T14:09:22.560Z,2.13
2022-09-23T14:11:35.454Z,2.83
2022-09-23T14:13:47.947Z,3.60
2022-09-23T14:15:57.198Z,2.90
2022-09-23T14:18:16.361Z,2.47
2022-09-23T14:20:44.318Z,1.80
2022-09-23T14:23:13.196Z,1.92
2022-09-23T14:25:31.516Z,1.95
2022-09-23T14:27:49.735Z,2.05
2022-09-23T14:30:08.630Z,2.10
2022-09-23T14:32:23.914Z,1.80
2022-09-23T14:34:44.867Z,2.30
2022-09-23T14:37:05.258Z,2.28
2022-09-23T14:39:11.164Z,2.08
2022-09-23T14:41:34.186Z,2.33
2022-09-23T14:43:35.653Z,2.83
2022-09-23T14:45:38.774Z,2.50
2022-09-23T14:47:42.795Z,2.85
2022-09-23T14:50:11.341Z,2.47
2022-09-23T14:52:13.314Z,3.30
2022-09-23T14:54:31.061Z,2.88
2022-09-23T14:56:41.419Z,2.53
2022-09-23T14:58:51.688Z,2.40
2022-09-23T15:00:55.663Z,2.10
2022-09-23T15:02:58.594Z,2.90
2022-09-23T15:05:15.610Z,1.52
2022-09-23T15:07:19.043Z,1.95
2022-09-23T15:09:23.766Z,2.63
2022-09-23T15:11:25.263Z,1.80
2022-09-23T15:13:28.759Z,1.90
2022-09-23T15:15:30.414Z,2.05
2022-09-23T15:17:36.030Z,1.92
2022-09-23T15:19:38.085Z,2.17
2022-09-23T15:21:41.140Z,2.33
2022-09-23T15:23:45.604Z,2.35
2022-09-23T15:25:51.455Z,2.65
2022-09-23T15:28:00.733Z,1.88
2022-09-23T15:30:22.655Z,2.45
2022-09-23T15:32:24.845Z,2.03
2022-09-23T15:34:26.221Z,1.85
2022-09-23T15:36:28.327Z,1.70
2022-09-23T15:38:29.938Z,1.95
2022-09-23T15:40:32.796Z,2.20
2022-09-23T15:42:34.685Z,2.20
2022-09-23T15:44:38.016Z,1.63
2022-09-23T15:46:40.812Z,2.13
2022-09-23T15:48:44.211Z,1.85
2022-09-23T15:50:46.641Z,1.88
2022-09-23T15:52:48.525Z,2.03
2022-09-23T15:54:50.092Z,1.40
2022-09-23T15:56:51.827Z,2.00
2022-09-23T15:58:53.256Z,2.22
2022-09-23T16:00:56.771Z,1.95
2022-09-23T16:02:58.507Z,1.30
2022-09-23T16:05:02.935Z,1.63
2022-09-23T16:07:05.672Z,1.48
2022-09-23T16:09:07.229Z,1.30
2022-09-23T16:11:18.260Z,1.85
2022-09-23T16:13:19.870Z,2.05
2022-09-23T16:15:22.461Z,2.00
2022-09-23T16:17:25.306Z,1.50
2022-09-23T16:19:26.748Z,1.30
2022-09-23T16:21:28.701Z,1.85
2022-09-23T16:23:34.467Z,1.52
2022-09-23T16:25:37.139Z,1.45
2022-09-23T16:27:40.203Z,1.77
2022-09-23T16:29:42.114Z,1.60
2022-09-23T16:31:43.769Z,1.60
2022-09-23T16:33:46.127Z,1.95
2022-09-23T16:35:48.577Z,1.45
2022-09-23T16:37:50.967Z,0.95
2022-09-23T16:39:52.642Z,1.35
2022-09-23T16:41:54.238Z,1.60
2022-09-23T16:43:56.243Z,1.70
2022-09-23T16:45:57.877Z,1.73
2022-09-23T16:48:00.022Z,1.30
2022-09-23T16:50:01.598Z,1.38
2022-09-23T16:52:03.136Z,1.15
2022-09-23T16:54:11.932Z,0.98
2022-09-23T16:56:13.647Z,1.23
2022-09-23T16:58:15.156Z,1.05
2022-09-23T17:00:36.149Z,1.77
2022-09-23T17:02:56.163Z,1.25
2022-09-23T17:04:57.658Z,2.15
2022-09-23T17:06:59.345Z,1.33
2022-09-23T17:09:01.118Z,1.60
2022-09-23T17:11:08.744Z,1.30
2022-09-23T17:13:28.067Z,1.40
2022-09-23T17:15:39.188Z,1.35
2022-09-23T17:17:44.147Z,1.20
2022-09-23T17:20:00.300Z,1.45
2022-09-23T17:22:21.015Z,1.70
2022-09-23T17:24:28.190Z,1.52
2022-09-23T17:26:41.795Z,0.90
2022-09-23T17:29:17.687Z,1.05
2022-09-23T17:31:33.518Z,1.08
2022-09-23T17:33:41.925Z,0.70
2022-09-23T17:36:03.418Z,0.90
2022-09-23T17:38:20.836Z,0.80
2022-09-23T17:40:26.185Z,1.00
2022-09-23T17:42:27.961Z,0.60
2022-09-23T17:44:29.438Z,0.82
2022-09-23T17:46:32.132Z,0.70
2022-09-23T17:48:35.081Z,0.70
2022-09-23T17:50:36.940Z,0.60
2022-09-23T17:52:38.358Z,0.90
2022-09-23T17:54:39.961Z,0.85
2022-09-23T17:56:42.766Z,0.60
2022-09-23T17:58:45.326Z,0.65
2022-09-23T18:00:46.882Z,0.40
2022-09-23T18:02:52.257Z,0.50
2022-09-23T18:04:53.765Z,0.63
2022-09-23T18:06:55.219Z,0.60
2022-09-23T18:08:57.921Z,0.63
2022-09-23T18:10:59.369Z,0.60
2022-09-23T18:13:00.776Z,0.60
2022-09-23T18:15:02.206Z,0.70
2022-09-23T18:17:03.946Z,0.52
2022-09-23T18:19:09.393Z,0.70
2022-09-23T18:21:11.326Z,0.60
2022-09-23T18:23:12.768Z,0.90
2022-09-23T18:25:37.591Z,0.68
2022-09-23T18:27:36.020Z,0.80
2022-09-23T18:29:37.462Z,1.05
2022-09-23T18:31:39.049Z,0.88
2022-09-23T18:33:40.689Z,0.85
2022-09-23T18:35:42.303Z,1.15
2022-09-23T18:37:43.776Z,1.00
2022-09-23T18:39:45.194Z,1.00
2022-09-23T18:41:48.605Z,0.80
2022-09-23T18:43:50.391Z,0.80
2022-09-23T18:45:56.128Z,1.38
2022-09-23T18:48:16.375Z,0.98
2022-09-23T18:50:36.263Z,1.10
2022-09-23T18:52:37.683Z,1.00
2022-09-23T18:54:39.093Z,0.75
2022-09-23T18:56:42.018Z,0.85
2022-09-23T18:58:49.813Z,1.48
2022-09-23T19:00:51.376Z,1.27
2022-09-23T19:02:53.018Z,1.08
2022-09-23T19:04:54.984Z,1.10
2022-09-23T19:06:57.796Z,1.60
2022-09-23T19:08:59.289Z,1.02
2022-09-23T19:11:02.762Z,1.50
2022-09-23T19:13:04.206Z,1.00
2022-09-23T19:15:05.851Z,1.33
2022-09-23T19:17:08.003Z,1.40
2022-09-23T19:19:09.572Z,1.48
2022-09-23T19:21:12.733Z,1.25
2022-09-23T19:23:15.880Z,1.92
2022-09-23T19:25:17.412Z,1.43
2022-09-23T19:27:19.283Z,1.10
2022-09-23T19:29:21.823Z,1.40
2022-09-23T19:31:24.753Z,1.45
2022-09-23T19:33:26.374Z,0.95
2022-09-23T19:35:29.425Z,1.10
2022-09-23T19:37:31.881Z,0.80
2022-09-23T19:39:34.593Z,0.98
2022-09-23T19:41:36.213Z,1.20
2022-09-23T19:43:37.791Z,1.25
2022-09-23T19:45:41.000Z,0.90
2022-09-23T19:47:42.349Z,1.15
2022-09-23T19:49:43.801Z,1.00
2022-09-23T19:51:46.679Z,1.33
2022-09-23T19:53:48.761Z,1.00
2022-09-23T19:55:50.121Z,1.00
2022-09-23T19:57:51.522Z,1.30
2022-09-23T19:59:52.951Z,1.10
2022-09-23T20:01:54.768Z,1.13
2022-09-23T20:03:56.790Z,1.55
2022-09-23T20:05:59.569Z,1.25
2022-09-23T20:08:03.003Z,1.20
2022-09-23T20:10:04.618Z,1.35
2022-09-23T20:12:06.074Z,2.28
2022-09-23T20:14:07.918Z,1.73
2022-09-23T20:16:12.109Z,2.10
2022-09-23T20:18:19.877Z,1.88
2022-09-23T20:20:30.021Z,2.13
2022-09-23T20:22:42.122Z,2.13
2022-09-23T20:24:50.596Z,2.35
2022-09-23T20:27:12.982Z,1.35
2022-09-23T20:29:21.846Z,1.27
2022-09-23T20:31:30.433Z,2.25
2022-09-23T20:33:34.240Z,2.92
2022-09-23T20:35:42.662Z,1.42
2022-09-23T20:37:50.576Z,0.93
2022-09-23T20:40:00.546Z,1.20
2022-09-23T20:42:13.720Z,1.42
2022-09-23T20:44:21.292Z,1.02
2022-09-23T20:46:24.423Z,1.48
2022-09-23T20:48:25.865Z,1.60
2022-09-23T20:50:27.332Z,1.40
2022-09-23T20:52:28.850Z,2.10
2022-09-23T20:54:31.438Z,2.20
2022-09-23T20:56:33.167Z,2.72
2022-09-23T20:58:37.592Z,3.75
2022-09-23T21:00:39.016Z,2.75
2022-09-23T21:02:40.501Z,1.85
2022-09-23T21:04:41.975Z,2.53
2022-09-23T21:06:43.426Z,1.65
2022-09-23T21:08:45.317Z,1.75
2022-09-23T21:10:56.221Z,1.90
2022-09-23T21:12:57.599Z,1.88
2022-09-23T21:14:59.072Z,2.03
2022-09-23T21:17:00.623Z,1.98
2022-09-23T21:19:03.197Z,1.27
2022-09-23T21:21:05.559Z,1.92
2022-09-23T21:23:07.356Z,2.00
2022-09-23T21:27:30.679Z,3.65
2022-09-23T21:29:32.201Z,4.43
2022-09-23T21:31:35.772Z,3.95
2022-09-23T21:33:37.513Z,4.43
2022-09-23T21:35:40.350Z,4.60
2022-09-23T21:37:41.728Z,3.50
2022-09-23T21:40:03.099Z,3.45
2022-09-23T21:42:05.946Z,3.03
2022-09-23T21:44:08.522Z,3.30
2022-09-23T21:46:11.254Z,3.75
2022-09-23T21:48:12.763Z,3.30
2022-09-23T21:50:14.271Z,1.95
2022-09-23T21:52:15.994Z,2.10
2022-09-23T21:54:17.752Z,1.90
2022-09-23T21:56:23.682Z,1.60
2022-09-23T21:58:26.640Z,1.08
2022-09-23T22:00:28.078Z,1.58
2022-09-23T22:02:29.485Z,1.50
2022-09-23T22:04:32.239Z,1.35
2022-09-23T22:06:34.553Z,1.10
2022-09-23T22:08:37.463Z,1.25
2022-09-23T22:10:38.918Z,1.02
2022-09-23T22:12:40.608Z,0.90
2022-09-23T22:14:42.905Z,1.05
2022-09-23T22:16:44.408Z,1.02
2022-09-23T22:18:45.939Z,1.38
2022-09-23T22:20:47.778Z,1.42
2022-09-23T22:22:50.194Z,1.15
2022-09-23T22:24:52.170Z,0.90
2022-09-23T22:26:53.894Z,0.75
2022-09-23T22:29:13.715Z,1.42
2022-09-23T22:31:33.992Z,1.00
2022-09-23T22:33:35.485Z,1.00
2022-09-23T22:35:36.866Z,0.85
2022-09-23T22:37:38.337Z,0.70
2022-09-23T22:39:40.055Z,0.95
2022-09-23T22:41:41.449Z,1.50
2022-09-23T22:43:43.062Z,1.02
2022-09-23T22:45:51.509Z,0.95
2022-09-23T22:47:53.237Z,1.08
2022-09-23T22:49:55.550Z,0.85
2022-09-23T22:51:57.107Z,1.10
2022-09-23T22:53:58.517Z,1.00
2022-09-23T22:56:03.033Z,0.60
2022-09-23T22:58:27.723Z,0.82
2022-09-23T23:00:27.898Z,0.80
2022-09-23T23:02:29.622Z,0.85
2022-09-23T23:04:31.067Z,0.80
2022-09-23T23:06:36.925Z,1.15
2022-09-23T23:08:38.782Z,0.80
2022-09-23T23:10:40.894Z,1.15
2022-09-23T23:12:42.322Z,0.47
2022-09-23T23:14:44.050Z,0.75
2022-09-23T23:16:46.196Z,1.30
2022-09-23T23:18:47.669Z,0.80
2022-09-23T23:20:49.097Z,0.80
2022-09-23T23:22:52.592Z,1.00
2022-09-23T23:27:03.535Z,0.93
2022-09-23T23:29:07.727Z,0.70
2022-09-23T23:31:17.834Z,0.88
2022-09-23T23:33:29.615Z,0.98
2022-09-23T23:35:40.544Z,0.82
2022-09-23T23:37:52.866Z,0.52
2022-09-23T23:40:03.408Z,0.77
2022-09-23T23:42:14.751Z,0.80
2022-09-23T23:44:27.770Z,0.90
2022-09-23T23:46:40.163Z,1.10
2022-09-23T23:48:51.446Z,0.70
2022-09-23T23:51:03.071Z,0.90
2022-09-23T23:53:06.138Z,0.70
2022-09-23T23:55:07.808Z,1.88
2022-09-23T23:57:09.411Z,0.85
2022-09-23T23:59:11.365Z,0.52
